Time;durP1;ratioP1;P1;durP2;ratioP2;P2;SDS_P1;SDS_P2;PMS_P1;PMS_P2;Temp;Humidity;BMP_temperature;BMP_pressure;BME280_temperature;BME280_humidity;BME280_pressure;Samples;Min_cycle;Max_cycle;Signal;HPM_P1;HPM_P2
2021/07/21 00:02:02;;;;;;;0.20;0.20;;;;;;;15.88;85.27;101521.94;5077809;28;21710;-88
2021/07/21 00:04:35;;;;;;;0.20;0.20;;;;;;;15.79;85.17;101514.38;5054652;28;20052;-89
2021/07/21 00:07:05;;;;;;;0.10;0.10;;;;;;;15.77;85.11;101504.78;5066859;28;20056;-90
2021/07/21 00:09:45;;;;;;;0.20;0.20;;;;;;;15.81;85.15;101514.91;5056444;28;20049;-89
2021/07/21 00:15:24;;;;;;;0.10;0.10;;;;;;;15.78;85.41;101512.72;5066244;28;20059;-89
2021/07/21 00:18:02;;;;;;;0.10;0.10;;;;;;;15.84;85.07;101510.75;5059310;28;20053;-91
2021/07/21 00:20:36;;;;;;;0.10;0.10;;;;;;;15.80;84.90;101513.28;5057429;28;20052;-87
2021/07/21 00:23:11;;;;;;;0.10;0.10;;;;;;;15.70;86.38;101507.06;5066525;28;20876;-91
2021/07/21 00:26:12;;;;;;;0.10;0.10;;;;;;;15.72;86.25;101513.09;5063985;28;20401;-91
2021/07/21 00:28:46;;;;;;;0.13;0.13;;;;;;;15.70;86.21;101515.28;5068785;28;20048;-89
2021/07/21 00:31:36;;;;;;;0.10;0.10;;;;;;;15.72;86.27;101504.84;5060937;28;20044;-90
2021/07/21 00:34:10;;;;;;;0.17;0.17;;;;;;;15.73;86.42;101503.72;5049655;28;20053;-91
2021/07/21 00:36:55;;;;;;;0.10;0.10;;;;;;;15.70;86.45;101507.06;5057837;28;20056;-91
2021/07/21 00:39:57;;;;;;;0.13;0.13;;;;;;;15.69;86.51;101500.78;5057416;28;20758;-91
2021/07/21 00:42:45;;;;;;;0.10;0.10;;;;;;;15.65;86.60;101503.28;5066538;28;20051;-89
2021/07/21 00:45:18;;;;;;;0.13;0.13;;;;;;;15.72;86.48;101510.34;5057992;28;20052;-90
2021/07/21 00:47:53;;;;;;;0.10;0.10;;;;;;;15.67;86.79;101507.66;5057886;28;20049;-90
2021/07/21 00:50:27;;;;;;;0.20;0.20;;;;;;;15.70;86.41;101507.06;5050316;28;20045;-89
2021/07/21 00:53:13;;;;;;;0.10;0.10;;;;;;;15.68;86.64;101498.31;5066450;28;20410;-89
2021/07/21 00:55:52;;;;;;;0.10;0.10;;;;;;;15.73;86.69;101503.72;5064217;28;20493;-90
2021/07/21 00:58:32;;;;;;;0.10;0.10;;;;;;;15.74;86.62;101494.38;5066484;28;20744;-89
2021/07/21 01:01:01;;;;;;;0.13;0.13;;;;;;;15.61;86.68;101482.22;5053592;28;20484;-89
2021/07/21 01:03:35;;;;;;;0.10;0.10;;;;;;;15.71;86.58;101497.72;5055613;28;20056;-90
2021/07/21 01:06:32;;;;;;;0.13;0.13;;;;;;;15.71;86.69;101504.03;5068979;28;20419;-91
2021/07/21 01:09:17;;;;;;;0.20;0.20;;;;;;;15.57;86.68;101489.41;5053669;28;20056;-89
2021/07/21 01:12:04;;;;;;;0.10;0.10;;;;;;;15.69;86.91;101498.03;5050843;28;20055;-90
2021/07/21 01:14:52;;;;;;;0.20;0.20;;;;;;;15.70;86.95;101505.16;5068551;28;20123;-90
2021/07/21 01:17:34;;;;;;;0.10;0.10;;;;;;;15.72;87.44;101499.38;5060369;28;20052;-89
2021/07/21 01:20:46;;;;;;;0.20;0.20;;;;;;;15.68;87.34;101509.31;5059191;28;20056;-91
2021/07/21 01:23:33;;;;;;;0.20;0.20;;;;;;;15.59;87.66;101498.97;5050024;28;20049;-90
2021/07/21 01:26:08;;;;;;;0.10;0.10;;;;;;;15.65;88.01;101513.44;5061756;28;20528;-90
2021/07/21 01:28:51;;;;;;;0.20;0.20;;;;;;;15.64;88.08;101512.59;5063352;28;20052;-89
2021/07/21 01:31:29;;;;;;;0.20;0.20;;;;;;;15.66;87.51;101504.09;5063818;28;20056;-90
2021/07/21 01:34:05;;;;;;;0.13;0.13;;;;;;;15.63;88.49;101510.16;5057847;28;20075;-90
2021/07/21 01:36:56;;;;;;;0.10;0.10;;;;;;;15.58;87.54;101500.06;5072530;28;20408;-90
2021/07/21 01:39:42;;;;;;;0.20;0.20;;;;;;;15.61;88.27;101512.41;5071117;28;20048;-90
2021/07/21 01:42:40;;;;;;;0.10;0.10;;;;;;;15.62;88.39;101512.09;5052062;28;20059;-90
2021/07/21 01:45:20;;;;;;;0.10;0.10;;;;;;;15.53;88.37;101500.13;5072113;28;20059;-89
2021/07/21 01:48:02;;;;;;;0.15;0.15;;;;;;;15.58;88.59;101513.78;5054248;28;20053;-90
2021/07/21 01:50:37;;;;;;;0.15;0.15;;;;;;;15.61;88.74;101513.19;5055670;28;20057;-89
2021/07/21 01:53:25;;;;;;;0.17;0.17;;;;;;;15.52;88.65;101508.66;5054363;28;20060;-89
2021/07/21 01:56:06;;;;;;;0.10;0.10;;;;;;;15.60;88.74;101511.56;5063309;28;20048;-90
2021/07/21 01:58:43;;;;;;;0.17;0.17;;;;;;;15.55;88.98;101500.66;5054621;28;20036;-90
2021/07/21 02:01:27;;;;;;;0.17;0.17;;;;;;;15.58;89.27;101507.50;5064223;28;20135;-90
2021/07/21 02:04:08;;;;;;;0.20;0.20;;;;;;;15.55;89.34;101508.91;5061850;28;20060;-88
2021/07/21 02:06:44;;;;;;;0.10;0.10;;;;;;;15.18;89.65;101450.09;5065907;28;20056;-90
2021/07/21 02:09:13;;;;;;;0.10;0.10;;;;;;;15.54;89.37;101512.75;5061137;28;20081;-90
2021/07/21 02:11:48;;;;;;;0.10;0.10;;;;;;;15.50;89.18;101497.97;5073856;28;20528;-89
2021/07/21 02:14:38;;;;;;;0.10;0.10;;;;;;;15.46;89.05;101505.16;5059640;28;20497;-89
2021/07/21 02:17:48;;;;;;;0.20;0.20;;;;;;;15.68;88.40;101512.03;5059622;28;20052;-89
2021/07/21 02:20:26;;;;;;;0.10;0.10;;;;;;;15.52;88.99;101503.19;5061343;28;20060;-90
2021/07/21 02:23:03;;;;;;;0.20;0.20;;;;;;;15.51;89.23;101509.75;5066073;28;20052;-90
2021/07/21 02:25:58;;;;;;;0.20;0.20;;;;;;;15.44;89.22;101501.91;5061466;28;20064;-90
2021/07/21 02:29:03;;;;;;;0.10;0.10;;;;;;;15.51;88.79;101502.38;5063409;28;20578;-89
2021/07/21 02:32:03;;;;;;;0.20;0.20;;;;;;;15.50;89.15;101500.72;5067437;28;20053;-89
2021/07/21 02:34:38;;;;;;;0.10;0.10;;;;;;;15.47;89.65;101504.88;5060132;28;20060;-90
2021/07/21 02:37:21;;;;;;;0.20;0.20;;;;;;;15.46;89.79;101505.16;5047804;28;20049;-90
2021/07/21 02:39:55;;;;;;;0.10;0.10;;;;;;;15.49;89.86;101499.09;5062386;28;20047;-90
2021/07/21 02:42:29;;;;;;;0.20;0.20;;;;;;;15.52;89.78;101497.69;5062316;28;20055;-89
2021/07/21 02:45:03;;;;;;;0.10;0.10;;;;;;;15.50;90.09;101503.47;5059029;28;20056;-89
2021/07/21 02:47:40;;;;;;;0.20;0.20;;;;;;;15.63;90.20;101499.19;5065541;28;20059;-89
2021/07/21 02:50:18;;;;;;;0.20;0.20;;;;;;;15.55;89.83;101497.09;5064008;28;20408;-90
2021/07/21 02:52:58;;;;;;;0.10;0.10;;;;;;;15.54;89.60;101507.25;5053018;28;20060;-90
2021/07/21 02:55:47;;;;;;;0.10;0.10;;;;;;;15.47;89.90;101506.81;5068961;28;20056;-89
2021/07/21 02:58:32;;;;;;;0.20;0.20;;;;;;;15.48;90.62;101503.78;5064258;28;20052;-90
2021/07/21 03:01:07;;;;;;;0.20;0.20;;;;;;;15.44;90.18;101499.16;5068221;28;20060;-90
2021/07/21 03:03:54;;;;;;;0.20;0.20;;;;;;;15.47;90.00;101504.06;5078002;28;20045;-90
2021/07/21 03:07:25;;;;;;;0.10;0.10;;;;;;;15.47;90.03;101504.88;5067700;28;20049;-90
2021/07/21 03:10:32;;;;;;;0.10;0.10;;;;;;;15.46;89.38;101499.69;5070183;28;20504;-90
2021/07/21 03:13:13;;;;;;;0.10;0.10;;;;;;;15.36;89.17;101492.38;5064562;28;20056;-90
2021/07/21 03:16:25;;;;;;;0.20;0.20;;;;;;;15.42;89.15;101502.19;5063699;28;20772;-90
2021/07/21 03:19:06;;;;;;;0.10;0.10;;;;;;;15.38;89.82;101501.13;5065830;28;20063;-89
2021/07/21 03:26:07;;;;;;;0.10;0.10;;;;;;;15.27;89.49;101480.44;5062679;28;20039;-89
2021/07/21 03:28:45;;;;;;;0.10;0.10;;;;;;;15.32;89.51;101507.78;5062817;28;20052;-90
2021/07/21 03:31:20;;;;;;;0.17;0.17;;;;;;;15.38;89.47;101511.28;5059965;28;20079;-89
2021/07/21 03:34:12;;;;;;;0.20;0.20;;;;;;;15.30;90.45;101497.13;5070296;28;20796;-90
2021/07/21 03:36:58;;;;;;;0.10;0.10;;;;;;;15.26;90.03;101497.97;5067326;28;20045;-90
2021/07/21 03:39:57;;;;;;;0.10;0.10;;;;;;;15.38;89.90;101514.84;5061299;28;20052;-90
2021/07/21 03:42:53;;;;;;;0.10;0.10;;;;;;;15.33;90.30;101516.81;5026726;28;20416;-90
2021/07/21 03:45:42;;;;;;;0.10;0.10;;;;;;;15.45;90.18;101503.53;5063445;28;20064;-89
2021/07/21 03:48:12;;;;;;;0.10;0.10;;;;;;;15.38;89.68;101516.78;5065136;28;20057;-90
2021/07/21 03:51:09;;;;;;;0.10;0.10;;;;;;;15.39;89.92;101521.16;5044215;28;20052;-89
2021/07/21 03:54:08;;;;;;;0.10;0.10;;;;;;;15.54;89.46;101517.44;5065806;28;20139;-89
2021/07/21 03:56:57;;;;;;;0.20;0.20;;;;;;;15.23;90.02;101493.09;5067684;28;20531;-89
2021/07/21 04:00:07;;;;;;;0.17;0.17;;;;;;;15.33;90.52;101523.16;5065151;28;20049;-90
2021/07/21 04:03:14;;;;;;;0.10;0.10;;;;;;;15.38;90.56;101520.31;5066302;28;20504;-89
2021/07/21 04:05:58;;;;;;;0.15;0.15;;;;;;;15.33;90.87;101523.16;5058027;28;20060;-90
2021/07/21 04:09:19;;;;;;;0.10;0.10;;;;;;;15.38;90.13;101520.31;5028565;28;20053;-89
2021/07/21 04:11:58;;;;;;;0.10;0.10;;;;;;;15.39;90.20;101530.19;5006429;28;20041;-90
2021/07/21 04:14:51;;;;;;;0.10;0.10;;;;;;;15.41;90.30;101528.00;5049377;28;20060;-90
2021/07/21 04:17:45;;;;;;;0.10;0.10;;;;;;;15.34;91.31;101522.03;5069455;28;20072;-90
2021/07/21 04:20:34;;;;;;;0.20;0.20;;;;;;;15.45;90.36;101522.72;5053723;28;20052;-90
2021/07/21 04:23:09;;;;;;;0.10;0.10;;;;;;;15.41;90.51;101522.50;5063972;28;20057;-89
2021/07/21 04:25:51;;;;;;;0.13;0.13;;;;;;;15.42;91.12;101515.09;5055001;28;20044;-90
2021/07/21 04:29:16;;;;;;;0.10;0.10;;;;;;;15.40;91.56;101518.13;5057907;28;21961;-90
2021/07/21 04:31:51;;;;;;;0.20;0.20;;;;;;;15.32;92.41;101517.97;5060419;28;20543;-90
2021/07/21 04:34:24;;;;;;;0.13;0.13;;;;;;;15.38;92.24;101514.03;5066286;28;20053;-90
2021/07/21 04:36:59;;;;;;;0.20;0.20;;;;;;;15.34;92.63;101522.03;5059624;28;20056;-90
2021/07/21 04:40:43;;;;;;;0.30;0.20;;;;;;;15.47;91.54;101518.59;5061419;28;20393;-90
2021/07/21 04:44:03;;;;;;;0.10;0.10;;;;;;;15.56;92.17;101534.41;5060953;28;20068;-89
2021/07/21 04:47:29;;;;;;;0.10;0.10;;;;;;;15.62;92.24;101544.22;5052454;28;20049;-89
2021/07/21 04:50:56;;;;;;;0.10;0.10;;;;;;;15.64;91.35;101544.72;5065562;28;20057;-90
2021/07/21 04:53:34;;;;;;;0.10;0.10;;;;;;;15.50;91.15;101508.97;5061359;28;20049;-89
2021/07/21 04:56:10;;;;;;;0.10;0.10;;;;;;;15.75;91.38;101531.69;5059139;28;20049;-89
2021/07/21 04:58:45;;;;;;;0.10;0.10;;;;;;;15.89;90.73;101540.06;5057962;28;20059;-90
2021/07/21 05:01:21;;;;;;;0.10;0.10;;;;;;;15.95;90.57;101536.13;5057279;28;20036;-90
2021/07/21 05:04:01;;;;;;;0.10;0.10;;;;;;;15.88;90.68;101542.00;5066142;28;20044;-90
2021/07/21 05:07:06;;;;;;;0.10;0.10;;;;;;;15.92;90.61;101545.78;5061751;28;20044;-90
2021/07/21 05:10:15;;;;;;;0.10;0.10;;;;;;;15.98;90.65;101552.03;5056288;28;20048;-90
2021/07/21 05:12:49;;;;;;;0.17;0.17;;;;;;;16.03;90.94;101534.66;5069941;28;20056;-90
2021/07/21 05:16:21;;;;;;;0.10;0.10;;;;;;;16.02;90.79;101544.00;5061003;28;20056;-90
2021/07/21 05:19:16;;;;;;;0.10;0.10;;;;;;;16.04;90.71;101544.53;5058131;28;20049;-90
2021/07/21 05:21:45;;;;;;;0.20;0.20;;;;;;;16.06;90.51;101561.50;5063827;28;20611;-89
2021/07/21 05:24:19;;;;;;;0.10;0.10;;;;;;;15.96;90.25;101524.88;5057889;28;20048;-90
2021/07/21 05:26:54;;;;;;;0.20;0.20;;;;;;;16.02;89.50;101519.28;5056078;28;20041;-90
2021/07/21 05:29:37;;;;;;;0.10;0.10;;;;;;;16.09;90.02;101561.75;5061537;28;20049;-90
2021/07/21 05:32:17;;;;;;;0.10;0.10;;;;;;;16.20;90.37;101567.91;5057188;28;21007;-90
2021/07/21 05:35:31;;;;;;;0.10;0.10;;;;;;;16.15;90.30;101560.56;5054512;28;20520;-90
2021/07/21 05:38:41;;;;;;;0.10;0.10;;;;;;;16.17;89.84;101565.75;5049697;28;20440;-89
2021/07/21 05:41:16;;;;;;;0.20;0.20;;;;;;;16.19;89.63;101559.97;5067154;28;20053;-89
2021/07/21 05:44:18;;;;;;;0.20;0.20;;;;;;;16.13;90.52;101565.53;5051099;28;20076;-91
2021/07/21 05:47:01;;;;;;;0.10;0.10;;;;;;;16.10;90.20;101566.13;5050423;28;20049;-89
2021/07/21 05:49:35;;;;;;;0.10;0.10;;;;;;;16.15;90.07;101566.03;5082229;28;20063;-90
2021/07/21 05:52:12;;;;;;;0.10;0.10;;;;;;;16.33;89.41;101560.88;5056475;28;20053;-90
2021/07/21 05:54:51;;;;;;;0.20;0.10;;;;;;;16.19;89.76;101557.25;5054862;28;20064;-89
2021/07/21 05:57:26;;;;;;;0.20;0.20;;;;;;;16.34;89.31;101568.00;5051507;28;20044;-89
2021/07/21 06:00:10;;;;;;;0.10;0.10;;;;;;;16.28;88.75;101571.91;5069762;28;20053;-89
2021/07/21 06:02:58;;;;;;;0.10;0.10;;;;;;;16.31;89.70;101571.34;5067808;28;20057;-90
2021/07/21 06:05:58;;;;;;;;;;;;;;;16.39;89.60;101581.66;5045296;28;20057;-90
2021/07/21 06:09:05;;;;;;;0.10;0.10;;;;;;;16.36;88.54;101584.19;5049429;28;20393;-91
2021/07/21 06:11:53;;;;;;;0.10;0.10;;;;;;;16.45;88.75;101585.16;5054635;28;20064;-88
2021/07/21 06:14:27;;;;;;;0.20;0.20;;;;;;;16.47;88.14;101589.22;5057664;28;20045;-89
2021/07/21 06:17:03;;;;;;;0.17;0.17;;;;;;;16.38;89.34;101581.94;5062632;28;20060;-90
2021/07/21 06:20:01;;;;;;;0.10;0.10;;;;;;;16.36;88.25;101584.97;5044399;28;20064;-90
2021/07/21 06:27:02;;;;;;;0.20;0.20;;;;;;;16.36;89.08;101601.47;5066954;28;20063;-90
2021/07/21 06:29:43;;;;;;;0.17;0.17;;;;;;;16.04;83.56;101599.44;5056152;28;20722;-90
2021/07/21 06:32:20;;;;;;;0.10;0.10;;;;;;;15.82;86.61;101617.25;5063259;28;20056;-90
2021/07/21 06:35:00;;;;;;;0.10;0.10;;;;;;;15.39;89.50;101611.69;5060740;28;20057;-89
2021/07/21 06:37:41;;;;;;;0.15;0.10;;;;;;;15.19;90.19;101627.22;5048762;28;20406;-91
2021/07/21 06:40:17;;;;;;;0.20;0.20;;;;;;;14.95;92.97;101613.44;5051612;28;20052;-90
2021/07/21 06:42:52;;;;;;;0.23;0.20;;;;;;;14.95;91.20;101614.22;5051786;28;20500;-90
2021/07/21 06:45:29;;;;;;;0.10;0.10;;;;;;;14.91;92.50;101629.63;5060472;28;20520;-90
2021/07/21 06:48:23;;;;;;;0.10;0.10;;;;;;;14.88;93.32;101635.69;5054412;28;20060;-90
2021/07/21 06:50:53;;;;;;;0.10;0.10;;;;;;;14.92;93.51;101638.69;5050193;28;20053;-89
2021/07/21 06:53:31;;;;;;;0.20;0.20;;;;;;;14.90;94.63;101636.22;5055710;28;20053;-91
2021/07/21 06:56:17;;;;;;;0.10;0.10;;;;;;;15.00;94.40;101642.72;5055132;28;20562;-90
2021/07/21 06:59:13;;;;;;;0.10;0.10;;;;;;;15.09;95.24;101652.81;5055102;28;20045;-91
2021/07/21 07:02:09;;;;;;;0.10;0.10;;;;;;;15.04;94.13;101650.09;5073142;28;20045;-91
2021/07/21 07:05:06;;;;;;;0.10;0.10;;;;;;;14.92;94.63;101644.97;5056425;28;20054;-91
2021/07/21 07:07:57;;;;;;;0.10;0.10;;;;;;;14.91;93.53;101643.31;5017214;28;20063;-89
2021/07/21 07:11:01;;;;;;;0.20;0.20;;;;;;;15.08;94.33;101653.91;5050529;28;20648;-90
2021/07/21 07:13:34;;;;;;;0.20;0.20;;;;;;;14.95;93.81;101632.63;5052330;28;20052;-91
2021/07/21 07:16:08;;;;;;;0.10;0.10;;;;;;;15.09;92.13;101658.28;5053851;28;20057;-90
2021/07/21 07:19:11;;;;;;;0.10;0.10;;;;;;;15.21;92.99;101660.63;5051095;28;20063;-93
2021/07/21 07:21:43;;;;;;;0.17;0.17;;;;;;;14.79;92.52;101585.34;5050175;28;20045;-90
2021/07/21 07:24:14;;;;;;;0.10;0.10;;;;;;;15.11;93.04;101625.09;5048987;28;20087;-91
2021/07/21 07:26:43;;;;;;;0.10;0.10;;;;;;;15.38;93.20;101657.47;5046021;28;20064;-91
2021/07/21 07:29:13;;;;;;;0.10;0.10;;;;;;;15.41;93.16;101643.19;5049427;28;20067;-91
2021/07/21 07:31:59;;;;;;;0.17;0.17;;;;;;;15.43;91.62;101634.69;5055639;28;20067;-89
2021/07/21 07:34:29;;;;;;;0.10;0.10;;;;;;;15.68;93.92;101661.03;5056373;28;21485;-91
2021/07/21 07:37:06;;;;;;;0.13;0.13;;;;;;;15.85;91.15;101644.13;5068137;28;20052;-90
2021/07/21 07:39:34;;;;;;;0.10;0.10;;;;;;;15.94;91.24;101608.63;5050748;28;20049;-90
2021/07/21 07:42:09;;;;;;;0.10;0.10;;;;;;;16.47;90.85;101655.19;5052155;28;20532;-91
2021/07/21 07:44:52;;;;;;;0.20;0.20;;;;;;;16.67;90.38;101658.75;5059924;28;20061;-90
2021/07/21 07:47:25;;;;;;;0.10;0.10;;;;;;;16.88;91.27;101652.94;5056386;28;20048;-91
2021/07/21 07:50:00;;;;;;;0.10;0.10;;;;;;;17.08;90.46;101652.66;5053861;28;20063;-91
2021/07/21 07:52:37;;;;;;;0.10;0.10;;;;;;;16.84;88.51;101639.75;5051804;28;20048;-91
2021/07/21 07:55:11;;;;;;;0.10;0.10;;;;;;;17.20;88.64;101643.09;5053060;28;20055;-92
2021/07/21 07:58:07;;;;;;;0.20;0.20;;;;;;;17.48;86.41;101653.06;5054518;28;20067;-91
2021/07/21 08:00:39;;;;;;;0.10;0.10;;;;;;;17.49;85.43;101629.09;5057871;28;20740;-91
2021/07/21 08:03:13;;;;;;;0.15;0.15;;;;;;;17.49;85.59;101629.09;5050548;28;20056;-91
2021/07/21 08:05:45;;;;;;;0.10;0.10;;;;;;;17.85;87.08;101642.16;5050270;28;20072;-91
2021/07/21 08:08:20;;;;;;;0.10;0.10;;;;;;;17.93;85.80;101647.00;5041222;28;20048;-89
2021/07/21 08:10:58;;;;;;;0.10;0.10;;;;;;;17.61;84.53;101599.13;5050834;28;20063;-89
2021/07/21 08:13:31;;;;;;;0.15;0.15;;;;;;;17.87;80.56;101641.84;5050157;28;20064;-88
2021/07/21 08:16:06;;;;;;;0.10;0.10;;;;;;;17.99;80.54;101640.28;5056084;28;20521;-92
2021/07/21 08:18:36;;;;;;;0.17;0.17;;;;;;;17.90;81.60;101619.22;5057309;28;20052;-92
2021/07/21 08:21:10;;;;;;;0.10;0.10;;;;;;;17.85;81.98;101598.09;5055582;28;20681;-91
2021/07/21 08:24:33;;;;;;;0.10;0.10;;;;;;;18.10;78.74;101637.28;5058357;28;21035;-91
2021/07/21 08:27:07;;;;;;;0.10;0.10;;;;;;;17.90;78.39;101624.72;5052694;28;20064;-90
2021/07/21 08:29:46;;;;;;;0.10;0.10;;;;;;;18.20;81.57;101648.09;5056096;28;20048;-90
2021/07/21 08:32:26;;;;;;;0.10;0.10;;;;;;;18.16;81.08;101645.16;5052982;28;20053;-91
2021/07/21 08:34:55;;;;;;;0.10;0.10;;;;;;;18.21;83.00;101654.44;5051029;28;20059;-89
2021/07/21 08:37:31;;;;;;;0.10;0.10;;;;;;;17.92;81.04;101633.53;5054417;28;20056;-91
2021/07/21 08:40:02;;;;;;;0.10;0.10;;;;;;;17.92;79.90;101641.78;5051087;28;20060;-89
2021/07/21 08:42:42;;;;;;;0.10;0.10;;;;;;;17.96;79.54;101645.56;5060954;28;21338;-89
2021/07/21 08:45:17;;;;;;;0.10;0.10;;;;;;;17.93;79.26;101646.19;5056949;28;20067;-89
2021/07/21 08:47:53;;;;;;;0.10;0.10;;;;;;;17.85;81.95;101650.44;5054624;28;20071;-91
2021/07/21 08:50:32;;;;;;;0.10;0.10;;;;;;;17.68;82.42;101648.28;5060317;28;20052;-88
2021/07/21 08:53:05;;;;;;;0.10;0.10;;;;;;;17.37;80.62;101628.75;5052756;28;20055;-91
2021/07/21 08:55:39;;;;;;;0.10;0.10;;;;;;;17.45;82.71;101655.59;5053189;28;20045;-90
2021/07/21 08:58:14;;;;;;;0.10;0.10;;;;;;;17.31;82.58;101652.81;5061523;28;20052;-89
2021/07/21 09:00:42;;;;;;;0.10;0.10;;;;;;;17.23;85.06;101654.28;5055703;28;20945;-89
2021/07/21 09:03:13;;;;;;;0.10;0.10;;;;;;;17.20;82.81;101646.66;5056385;28;20053;-90
2021/07/21 09:06:18;;;;;;;0.10;0.10;;;;;;;17.08;85.88;101665.56;5058919;28;20052;-90
2021/07/21 09:08:53;;;;;;;0.10;0.10;;;;;;;16.95;86.17;101656.16;5052854;28;20060;-89
2021/07/21 09:11:27;;;;;;;0.10;0.10;;;;;;;16.92;86.63;101676.00;5040024;28;20301;-89
2021/07/21 09:14:02;;;;;;;0.10;0.10;;;;;;;16.62;87.93;101667.84;5054148;28;20701;-91
2021/07/21 09:16:31;;;;;;;0.20;0.20;;;;;;;16.32;89.43;101671.84;5056268;28;20056;-91
2021/07/21 09:19:08;;;;;;;0.10;0.10;;;;;;;15.90;91.08;101648.75;5057000;28;20075;-92
2021/07/21 09:21:45;;;;;;;0.10;0.10;;;;;;;16.32;90.92;101686.41;5054190;28;20052;-90
2021/07/21 09:24:21;;;;;;;0.10;0.10;;;;;;;16.06;92.68;101698.78;5060883;28;20049;-90
2021/07/21 09:26:56;;;;;;;0.10;0.10;;;;;;;15.86;93.03;101688.88;5055502;28;20067;-90
2021/07/21 09:29:28;;;;;;;0.20;0.20;;;;;;;15.91;93.29;101697.88;5053077;28;20056;-89
2021/07/21 09:32:01;;;;;;;0.10;0.10;;;;;;;16.04;92.85;101692.78;5051983;28;20401;-89
2021/07/21 09:34:35;;;;;;;0.17;0.17;;;;;;;15.90;93.73;101703.66;5053884;28;20059;-91
2021/07/21 09:37:06;;;;;;;0.10;0.10;;;;;;;16.00;93.17;101703.53;5061879;28;20073;-91
2021/07/21 09:39:50;;;;;;;0.20;0.20;;;;;;;15.96;93.50;101692.34;5057303;28;20863;-90
2021/07/21 09:42:28;;;;;;;0.10;0.10;;;;;;;16.18;92.82;101684.66;5054135;28;20056;-89
2021/07/21 09:45:08;;;;;;;0.10;0.10;;;;;;;16.45;92.63;101692.28;5054271;28;20052;-91
2021/07/21 09:47:50;;;;;;;0.20;0.20;;;;;;;16.61;92.80;101654.41;5050457;28;20057;-91
2021/07/21 09:50:30;;;;;;;0.10;0.10;;;;;;;16.89;92.07;101691.16;5056456;28;20064;-89
2021/07/21 09:53:04;;;;;;;0.17;0.17;;;;;;;17.13;90.41;101671.78;5058323;28;20651;-90
2021/07/21 09:55:36;;;;;;;0.10;0.10;;;;;;;17.28;88.87;101692.72;5054036;28;20068;-90
2021/07/21 09:58:07;;;;;;;0.20;0.20;;;;;;;17.68;89.49;101690.38;5053358;28;20408;-89
2021/07/21 10:00:44;;;;;;;0.10;0.10;;;;;;;17.43;88.93;101647.63;5059067;28;20075;-89
2021/07/21 10:03:16;;;;;;;0.10;0.10;;;;;;;17.66;87.00;101680.78;5057553;28;20052;-89
2021/07/21 10:06:04;;;;;;;0.10;0.10;;;;;;;17.65;88.53;101659.91;5051126;28;20056;-91
2021/07/21 10:08:38;;;;;;;0.10;0.10;;;;;;;17.83;87.70;101682.97;5050843;28;20071;-90
2021/07/21 10:11:31;;;;;;;0.10;0.10;;;;;;;17.76;86.12;101680.63;5053636;28;20060;-89
2021/07/21 10:14:11;;;;;;;0.10;0.10;;;;;;;17.83;87.76;101691.22;5046020;28;21519;-90
2021/07/21 10:17:18;;;;;;;0.10;0.10;;;;;;;17.52;89.37;101680.75;5091077;27;20411;-89
2021/07/21 10:19:47;;;;;;;0.10;0.10;;;;;;;17.25;86.48;101629.22;5088501;28;20051;-87
2021/07/21 10:22:20;;;;;;;0.10;0.10;;;;;;;17.64;85.72;101642.56;5087757;28;20055;-90
2021/07/21 10:24:48;;;;;;;0.10;0.10;;;;;;;17.47;87.30;101659.66;5090936;28;20044;-91
2021/07/21 10:27:22;;;;;;;0.10;0.10;;;;;;;17.33;86.44;101645.03;5093478;28;20052;-91
2021/07/21 10:29:57;;;;;;;0.20;0.20;;;;;;;17.54;86.87;101673.03;5091176;28;20064;-88
2021/07/21 10:32:33;;;;;;;0.10;0.10;;;;;;;17.60;88.36;101676.50;5088778;28;20056;-89
2021/07/21 10:35:08;;;;;;;0.10;0.10;;;;;;;17.44;86.90;101656.69;5091394;28;20048;-89
2021/07/21 10:37:58;;;;;;;0.10;0.10;;;;;;;17.57;84.92;101674.38;5088975;28;20047;-89
2021/07/21 10:40:56;;;;;;;0.10;0.10;;;;;;;17.60;85.81;101674.56;5089287;28;20040;-91
2021/07/21 10:43:29;;;;;;;0.10;0.10;;;;;;;17.08;85.97;101638.06;5090512;28;20063;-89
2021/07/21 10:46:00;;;;;;;0.10;0.10;;;;;;;17.31;87.56;101674.81;5089619;28;20048;-89
2021/07/21 10:48:45;;;;;;;0.20;0.20;;;;;;;17.20;88.53;101681.59;5095995;28;20434;-88
2021/07/21 10:52:30;;;;;;;0.10;0.10;;;;;;;17.26;86.94;101677.63;5086676;28;21261;-89
2021/07/21 10:55:26;;;;;;;0.10;0.10;;;;;;;17.19;87.84;101675.28;5087718;28;20055;-88
2021/07/21 11:01:26;;;;;;;0.10;0.10;;;;;;;16.98;88.56;101688.53;5075968;28;20059;-88
2021/07/21 11:04:04;;;;;;;0.10;0.10;;;;;;;16.86;89.13;101682.66;5077376;28;20048;-89
2021/07/21 11:06:44;;;;;;;0.10;0.10;;;;;;;16.96;89.77;101694.34;5079342;28;20739;-87
2021/07/21 11:09:25;;;;;;;0.10;0.10;;;;;;;16.65;91.10;101688.44;5082389;28;20044;-91
2021/07/21 11:11:59;;;;;;;0.10;0.10;;;;;;;16.49;89.68;101690.59;5081846;28;20060;-91
2021/07/21 11:14:30;;;;;;;0.10;0.10;;;;;;;16.44;90.33;101693.41;5082983;28;20049;-87
2021/07/21 11:17:21;;;;;;;0.17;0.17;;;;;;;16.27;91.40;101686.47;5031615;28;20057;-90
2021/07/21 11:20:01;;;;;;;0.10;0.10;;;;;;;16.49;91.04;101696.09;5036524;28;20068;-89
2021/07/21 11:22:38;;;;;;;0.10;0.10;;;;;;;16.39;92.00;101702.53;5036157;28;20049;-87
2021/07/21 11:25:36;;;;;;;;;;;;;;;16.54;90.28;101685.00;5040420;28;20075;-88
2021/07/21 11:28:27;;;;;;;0.10;0.10;;;;;;;16.68;91.76;101679.59;5042500;28;19929;-89
2021/07/21 11:31:07;;;;;;;0.20;0.20;;;;;;;16.76;92.27;101684.41;5030838;28;20488;-90
2021/07/21 11:33:44;;;;;;;0.10;0.10;;;;;;;16.81;91.63;101678.84;5023139;28;20060;-91
2021/07/21 11:36:34;;;;;;;0.10;0.10;;;;;;;17.04;92.21;101676.34;5029933;28;20059;-88
2021/07/21 11:39:54;;;;;;;0.10;0.10;;;;;;;17.22;90.14;101676.59;5028815;28;20066;-91
2021/07/21 11:43:13;;;;;;;0.20;0.20;;;;;;;17.33;90.94;101681.66;5024050;28;20056;-91
2021/07/21 11:45:42;;;;;;;0.20;0.20;;;;;;;17.42;89.83;101637.75;5018805;28;20053;-86
2021/07/21 11:48:18;;;;;;;0.10;0.10;;;;;;;17.96;90.15;101676.66;5021581;28;20053;-87
2021/07/21 11:50:52;;;;;;;0.10;0.10;;;;;;;18.12;86.38;101676.38;5022700;28;20068;-86
2021/07/21 11:53:22;;;;;;;0.10;0.10;;;;;;;18.49;86.26;101671.72;5021937;28;20067;-87
2021/07/21 11:56:07;;;;;;;0.10;0.10;;;;;;;18.39;83.25;101672.75;5019879;28;20053;-90
2021/07/21 11:58:44;;;;;;;0.20;0.20;;;;;;;18.44;87.13;101678.16;5019638;28;20788;-88
2021/07/21 12:01:26;;;;;;;0.10;0.10;;;;;;;18.49;85.81;101678.06;5018690;28;20528;-91
2021/07/21 12:03:56;;;;;;;0.10;0.10;;;;;;;18.73;84.17;101676.19;5022492;28;20044;-89
2021/07/21 12:06:30;;;;;;;0.10;0.10;;;;;;;18.84;87.39;101683.06;5018282;28;20045;-90
2021/07/21 12:09:05;;;;;;;0.20;0.20;;;;;;;18.94;83.62;101680.09;5020216;28;20057;-90
2021/07/21 12:11:37;;;;;;;0.10;0.10;;;;;;;19.19;85.67;101675.09;5019791;28;20065;-90
2021/07/21 12:14:12;;;;;;;0.10;0.10;;;;;;;19.23;83.52;101665.03;5017134;28;20058;-89
2021/07/21 12:16:47;;;;;;;0.10;0.10;;;;;;;19.27;83.55;101668.00;5015768;28;20045;-89
2021/07/21 12:19:27;;;;;;;0.15;0.15;;;;;;;19.10;79.07;101663.16;5018135;28;20045;-90
2021/07/21 12:22:04;;;;;;;0.10;0.10;;;;;;;19.20;82.29;101657.41;5016223;28;20053;-90
2021/07/21 12:24:40;;;;;;;;;;;;;;;19.13;82.77;101666.13;5020064;28;20730;-86
2021/07/21 12:27:20;;;;;;;;;;;;;;;19.39;84.91;101665.47;5022226;28;20077;-85
2021/07/21 12:29:48;;;;;;;0.10;0.10;;;;;;;19.46;78.97;101656.72;5019910;28;19929;-85
2021/07/21 12:32:21;;;;;;;0.10;0.10;;;;;;;19.64;76.97;101652.13;5009291;28;20066;-85
2021/07/21 12:34:56;;;;;;;0.10;0.10;;;;;;;19.45;74.49;101647.63;5010737;28;20049;-86
2021/07/21 12:37:38;;;;;;;0.10;0.10;;;;;;;19.29;77.13;101646.41;5016030;28;20909;-92
2021/07/21 12:40:15;;;;;;;0.10;0.10;;;;;;;19.77;79.22;101653.16;5024202;28;20052;-92
2021/07/21 12:42:44;;;;;;;0.20;0.20;;;;;;;19.75;78.53;101583.59;5024080;28;20064;-93
2021/07/21 12:45:20;;;;;;;0.17;0.15;;;;;;;20.16;79.19;101649.56;5028093;28;20064;-92
2021/07/21 12:47:52;;;;;;;0.10;0.10;;;;;;;19.63;76.81;101609.88;5026337;28;20069;-93
2021/07/21 12:50:23;;;;;;;0.10;0.10;;;;;;;19.50;74.17;101605.28;5026641;28;20061;-92
2021/07/21 12:52:54;;;;;;;0.10;0.10;;;;;;;19.23;78.12;101592.50;5029666;28;20061;-93
2021/07/21 12:55:33;;;;;;;0.10;0.10;;;;;;;19.31;77.52;101611.84;5028350;28;20061;-92